Time;durP1;ratioP1;P1;durP2;ratioP2;P2;SDS_P1;SDS_P2;PMS_P1;PMS_P2;Temp;Humidity;BMP_temperature;BMP_pressure;BME280_temperature;BME280_humidity;BME280_pressure;Samples;Min_cycle;Max_cycle;Signal;HPM_P1;HPM_P2
2023/06/16 00:00:48;;;;;;;15.07;9.77;;;15.30;99.90;;;;;;5082462;28;20684;-81
2023/06/16 00:03:15;;;;;;;13.20;9.77;;;15.30;99.90;;;;;;5099349;28;20194;-80
2023/06/16 00:05:45;;;;;;;12.83;10.07;;;15.30;99.90;;;;;;5099708;28;20233;-80
2023/06/16 00:08:12;;;;;;;12.93;9.83;;;15.30;99.90;;;;;;5082840;28;20217;-80
2023/06/16 00:10:39;;;;;;;14.57;9.70;;;15.20;99.90;;;;;;5098991;28;20267;-81
2023/06/16 00:13:07;;;;;;;14.10;10.63;;;15.20;99.90;;;;;;5097497;28;20193;-81
2023/06/16 00:15:34;;;;;;;13.23;9.83;;;15.20;99.90;;;;;;5076897;28;20241;-81
2023/06/16 00:18:01;;;;;;;14.13;10.43;;;15.20;99.90;;;;;;5094440;28;20194;-80
2023/06/16 00:20:29;;;;;;;15.03;10.40;;;15.10;99.90;;;;;;5093583;28;20217;-81
2023/06/16 00:22:57;;;;;;;13.27;10.00;;;15.10;99.90;;;;;;5094947;28;20209;-80
2023/06/16 00:25:24;;;;;;;13.37;9.77;;;15.10;99.90;;;;;;5076438;28;20730;-81
2023/06/16 00:27:51;;;;;;;12.73;9.60;;;15.10;99.90;;;;;;5076507;28;20299;-81
2023/06/16 00:30:18;;;;;;;13.00;9.90;;;15.00;99.90;;;;;;5076222;28;20213;-80
2023/06/16 00:32:46;;;;;;;12.57;9.23;;;15.00;99.90;;;;;;5094796;28;20193;-81
2023/06/16 00:35:13;;;;;;;14.67;9.70;;;14.90;99.90;;;;;;5093294;28;20243;-79
2023/06/16 00:37:40;;;;;;;13.93;9.70;;;14.80;99.90;;;;;;5076190;28;20200;-81
2023/06/16 00:40:08;;;;;;;13.50;9.57;;;14.80;99.90;;;;;;5093707;28;20201;-80
2023/06/16 00:42:35;;;;;;;12.53;8.97;;;14.70;99.90;;;;;;5094233;28;20699;-81
2023/06/16 00:45:02;;;;;;;12.90;9.17;;;14.60;99.90;;;;;;5092899;28;20245;-81
2023/06/16 00:47:30;;;;;;;12.17;9.53;;;14.60;99.90;;;;;;5076511;28;20231;-81
2023/06/16 00:49:57;;;;;;;13.43;9.47;;;14.60;99.90;;;;;;5092682;28;20308;-80
2023/06/16 00:52:28;;;;;;;16.57;10.03;;;14.50;99.90;;;;;;5092667;28;20709;-81
2023/06/16 00:54:55;;;;;;;13.03;9.90;;;14.40;99.90;;;;;;5094087;28;20210;-80
2023/06/16 00:57:22;;;;;;;12.53;9.37;;;14.40;99.90;;;;;;5076337;28;20198;-81
2023/06/16 00:59:49;;;;;;;14.73;9.77;;;14.40;99.90;;;;;;5075766;28;20221;-81
2023/06/16 01:02:18;;;;;;;12.43;10.07;;;14.30;99.90;;;;;;5094002;28;20216;-81
2023/06/16 01:04:48;;;;;;;16.23;10.70;;;14.20;99.90;;;;;;5092679;28;20715;-80
2023/06/16 01:07:20;;;;;;;12.43;10.03;;;14.20;99.90;;;;;;5092622;28;20228;-82
2023/06/16 01:10:06;;;;;;;14.40;10.00;;;14.20;99.90;;;;;;5075921;28;20264;-81
2023/06/16 01:12:39;;;;;;;12.80;10.17;;;14.10;99.90;;;;;;5092720;28;20197;-81
2023/06/16 01:15:10;;;;;;;15.77;10.47;;;14.10;99.90;;;;;;5093157;28;20220;-81
2023/06/16 01:17:44;;;;;;;13.07;10.10;;;14.10;99.90;;;;;;5059527;28;20189;-82
2023/06/16 01:20:51;;;;;;;15.47;10.23;;;14.10;99.90;;;;;;5092629;28;20220;-81
2023/06/16 01:23:35;;;;;;;16.40;10.53;;;14.00;99.90;;;;;;5090787;28;20209;-81
2023/06/16 01:26:04;;;;;;;15.83;10.50;;;13.90;99.90;;;;;;5075276;28;20244;-81
2023/06/16 01:28:34;;;;;;;13.80;10.53;;;14.00;99.90;;;;;;5092008;28;20197;-82
2023/06/16 01:31:02;;;;;;;14.47;11.07;;;13.90;99.90;;;;;;5075037;28;20697;-81
2023/06/16 01:33:32;;;;;;;13.83;10.63;;;13.90;99.90;;;;;;5092041;28;20185;-80
2023/06/16 01:36:01;;;;;;;15.40;10.73;;;13.80;99.90;;;;;;5075101;28;20317;-80
2023/06/16 01:38:30;;;;;;;13.43;10.80;;;13.80;99.90;;;;;;5074993;28;20204;-81
2023/06/16 01:40:58;;;;;;;13.93;10.40;;;13.80;99.90;;;;;;5074926;28;20233;-80
2023/06/16 01:43:26;;;;;;;15.77;11.27;;;13.80;99.90;;;;;;5091800;28;20279;-81
2023/06/16 01:45:54;;;;;;;14.13;10.47;;;13.80;99.90;;;;;;5091457;28;20718;-81
2023/06/16 01:48:22;;;;;;;15.10;11.10;;;13.90;99.90;;;;;;5091622;28;20283;-80
2023/06/16 01:50:50;;;;;;;13.97;10.73;;;13.70;99.90;;;;;;5074540;28;20220;-80
2023/06/16 01:53:17;;;;;;;13.17;10.83;;;13.80;99.90;;;;;;5074954;28;20636;-80
2023/06/16 01:55:51;;;;;;;13.77;11.03;;;13.70;99.90;;;;;;5074857;28;20305;-80
2023/06/16 01:58:22;;;;;;;14.63;11.43;;;13.60;99.90;;;;;;5091540;28;20263;-80
2023/06/16 02:00:57;;;;;;;15.03;11.47;;;13.60;99.90;;;;;;5091347;28;20220;-80
2023/06/16 02:03:46;;;;;;;16.40;11.70;;;13.60;99.90;;;;;;5074534;28;20191;-80
2023/06/16 02:06:27;;;;;;;14.57;11.17;;;13.50;99.90;;;;;;5091220;28;20225;-79
2023/06/16 02:08:58;;;;;;;15.97;11.13;;;13.50;99.90;;;;;;5092644;28;20234;-80
2023/06/16 02:11:26;;;;;;;15.23;11.30;;;13.50;99.90;;;;;;5091590;28;20206;-80
2023/06/16 02:13:53;;;;;;;13.83;10.83;;;13.70;99.90;;;;;;5091596;28;20208;-81
2023/06/16 02:16:20;;;;;;;14.23;10.83;;;13.50;99.90;;;;;;5091394;28;20271;-83
2023/06/16 02:18:53;;;;;;;13.93;10.83;;;13.50;99.90;;;;;;5091438;28;20182;-82
2023/06/16 02:21:22;;;;;;;12.97;10.90;;;13.50;99.90;;;;;;5091367;28;20225;-81
2023/06/16 02:23:49;;;;;;;15.80;11.10;;;13.50;99.90;;;;;;5091377;28;20660;-83
2023/06/16 02:26:16;;;;;;;15.83;11.70;;;13.50;99.90;;;;;;5092623;28;20206;-83
2023/06/16 02:28:43;;;;;;;14.23;11.57;;;13.40;99.90;;;;;;5075154;28;20185;-82
2023/06/16 02:31:12;;;;;;;12.63;10.30;;;13.40;99.90;;;;;;5074383;28;20297;-83
2023/06/16 02:33:40;;;;;;;19.20;11.90;;;13.40;99.90;;;;;;5091165;28;20206;-81
2023/06/16 02:36:08;;;;;;;13.73;11.10;;;13.40;99.90;;;;;;5092250;28;20571;-83
2023/06/16 02:38:36;;;;;;;16.10;11.10;;;13.30;99.90;;;;;;5091857;28;20284;-83
2023/06/16 02:41:02;;;;;;;15.87;11.30;;;13.30;99.90;;;;;;5092665;28;20225;-83
2023/06/16 02:43:31;;;;;;;15.47;11.87;;;13.30;99.90;;;;;;5093060;28;20691;-83
2023/06/16 02:46:00;;;;;;;14.43;11.70;;;13.40;99.90;;;;;;5091100;28;20324;-83
2023/06/16 02:48:27;;;;;;;16.60;11.57;;;13.20;99.90;;;;;;5074672;28;20649;-83
2023/06/16 02:50:54;;;;;;;14.87;12.33;;;13.30;99.90;;;;;;5074479;28;20257;-82
2023/06/16 02:53:24;;;;;;;15.27;12.43;;;13.30;99.90;;;;;;5075027;28;20587;-83
2023/06/16 02:55:52;;;;;;;18.60;13.33;;;13.20;99.90;;;;;;5074791;28;20676;-81
2023/06/16 02:58:20;;;;;;;17.57;12.70;;;13.20;99.90;;;;;;5091023;28;20212;-83
2023/06/16 03:00:47;;;;;;;17.43;12.50;;;13.20;99.90;;;;;;5091094;28;20599;-83
2023/06/16 03:03:14;;;;;;;16.07;12.50;;;13.30;99.90;;;;;;5094525;28;20256;-83
2023/06/16 03:05:42;;;;;;;19.60;13.23;;;13.20;99.90;;;;;;5080019;28;20213;-84
2023/06/16 03:08:09;;;;;;;19.37;12.47;;;13.30;99.90;;;;;;5078361;28;20197;-80
2023/06/16 03:10:36;;;;;;;17.23;12.60;;;13.30;99.90;;;;;;5082127;28;20699;-81
2023/06/16 03:13:03;;;;;;;15.83;12.87;;;13.40;99.90;;;;;;5058642;28;20366;-80
2023/06/16 03:15:30;;;;;;;17.90;13.23;;;13.30;99.90;;;;;;5041413;28;20218;-81
2023/06/16 03:17:57;;;;;;;17.60;13.47;;;13.30;99.90;;;;;;5075778;28;20265;-80
2023/06/16 03:20:28;;;;;;;22.90;14.10;;;13.40;99.90;;;;;;5057621;28;20232;-81
2023/06/16 03:22:55;;;;;;;18.17;14.03;;;13.30;99.90;;;;;;5057651;28;20686;-80
2023/06/16 03:25:22;;;;;;;17.83;14.00;;;13.30;99.90;;;;;;5057496;28;20310;-81
2023/06/16 03:27:49;;;;;;;16.77;13.80;;;13.50;99.90;;;;;;5057686;28;20243;-82
2023/06/16 03:30:16;;;;;;;18.73;14.27;;;13.40;99.90;;;;;;5075418;28;20202;-81
2023/06/16 03:32:44;;;;;;;17.47;13.90;;;13.40;99.90;;;;;;5057977;28;20566;-82
2023/06/16 03:35:12;;;;;;;17.87;14.13;;;13.40;99.90;;;;;;5041654;28;20252;-82
2023/06/16 03:37:39;;;;;;;18.70;14.03;;;13.50;99.90;;;;;;5025295;28;20200;-81
2023/06/16 03:40:07;;;;;;;19.77;13.73;;;13.50;99.90;;;;;;5041345;28;20689;-79
2023/06/16 03:42:35;;;;;;;16.47;13.33;;;13.60;99.90;;;;;;5041535;28;20699;-81
2023/06/16 03:45:03;;;;;;;18.00;13.10;;;13.70;99.90;;;;;;5058360;28;20244;-79
2023/06/16 03:47:30;;;;;;;19.23;13.90;;;13.80;99.90;;;;;;5040963;28;20198;-80
2023/06/16 03:49:58;;;;;;;20.27;14.80;;;13.90;99.90;;;;;;5057882;28;20723;-80
2023/06/16 03:52:25;;;;;;;21.73;14.50;;;13.80;99.90;;;;;;5058202;28;20194;-81
2023/06/16 03:54:52;;;;;;;19.00;14.17;;;13.90;99.90;;;;;;5075499;28;20279;-81
2023/06/16 03:57:19;;;;;;;17.93;13.70;;;13.90;99.90;;;;;;5075235;28;20182;-82
2023/06/16 03:59:46;;;;;;;19.07;14.30;;;14.10;99.90;;;;;;5057564;28;20220;-80
2023/06/16 04:02:13;;;;;;;20.67;14.10;;;14.10;99.90;;;;;;5075586;28;20214;-80
2023/06/16 04:04:43;;;;;;;18.60;13.47;;;14.30;99.90;;;;;;5057492;28;20310;-81
2023/06/16 04:07:11;;;;;;;18.23;14.20;;;14.40;99.90;;;;;;5040939;28;20190;-81
2023/06/16 04:09:38;;;;;;;18.27;13.87;;;14.50;99.90;;;;;;5066568;28;20749;-80
2023/06/16 04:12:06;;;;;;;18.60;14.20;;;14.60;99.90;;;;;;5096321;28;20227;-80
2023/06/16 04:14:33;;;;;;;17.07;13.50;;;14.70;99.90;;;;;;5093674;28;20181;-80
2023/06/16 04:17:00;;;;;;;17.23;14.13;;;14.80;99.90;;;;;;5094750;28;20225;-81
2023/06/16 04:19:27;;;;;;;18.37;14.20;;;14.90;99.90;;;;;;5078095;28;20731;-80
2023/06/16 04:21:56;;;;;;;17.90;14.20;;;15.00;99.90;;;;;;5094519;28;20235;-79
2023/06/16 04:24:23;;;;;;;19.23;14.67;;;15.00;99.90;;;;;;5094609;28;20197;-80
2023/06/16 04:26:52;;;;;;;17.83;14.03;;;15.10;99.90;;;;;;5094288;28;20243;-80
2023/06/16 04:29:20;;;;;;;22.47;14.97;;;15.30;99.90;;;;;;5077199;28;20198;-81
2023/06/16 04:31:51;;;;;;;21.33;14.93;;;15.40;99.90;;;;;;5094249;28;20586;-81
2023/06/16 04:34:18;;;;;;;21.47;14.87;;;15.50;99.90;;;;;;5095666;28;20193;-81
2023/06/16 04:36:46;;;;;;;20.63;14.70;;;15.60;99.90;;;;;;5077581;28;20224;-81
2023/06/16 04:39:14;;;;;;;19.20;14.33;;;15.70;99.90;;;;;;5094179;28;20710;-80
2023/06/16 04:41:42;;;;;;;18.73;14.43;;;15.70;99.90;;;;;;5093776;28;20214;-80
2023/06/16 04:44:10;;;;;;;22.10;14.93;;;15.80;99.90;;;;;;5095404;28;20342;-81
2023/06/16 04:46:37;;;;;;;21.57;14.23;;;16.00;99.90;;;;;;5093834;28;20249;-81
2023/06/16 04:49:04;;;;;;;20.77;13.87;;;16.00;99.90;;;;;;5094634;28;20251;-81
2023/06/16 04:51:33;;;;;;;20.23;14.67;;;16.10;99.90;;;;;;5093242;28;20746;-80
2023/06/16 04:54:00;;;;;;;17.13;13.93;;;16.20;99.90;;;;;;5094180;28;20209;-79
2023/06/16 04:56:27;;;;;;;17.60;13.50;;;16.30;99.90;;;;;;5093168;28;20271;-80
2023/06/16 04:58:54;;;;;;;18.37;14.13;;;16.30;99.90;;;;;;5092423;28;20305;-80
2023/06/16 05:01:26;;;;;;;16.97;14.03;;;16.40;99.90;;;;;;5092582;28;20222;-80
2023/06/16 05:03:54;;;;;;;18.87;13.93;;;16.50;99.90;;;;;;5092682;28;20205;-80
2023/06/16 05:06:22;;;;;;;18.97;13.93;;;16.60;99.90;;;;;;5093919;28;20217;-80
2023/06/16 05:08:49;;;;;;;17.13;13.80;;;16.60;99.90;;;;;;5092490;28;20198;-80
2023/06/16 05:11:17;;;;;;;18.23;14.07;;;16.70;99.90;;;;;;5092185;28;20237;-80
2023/06/16 05:13:43;;;;;;;20.47;14.23;;;16.80;99.90;;;;;;5092301;28;20286;-82
2023/06/16 05:16:11;;;;;;;18.87;14.00;;;16.80;99.90;;;;;;5092541;28;20220;-80
2023/06/16 05:18:38;;;;;;;18.67;14.23;;;16.80;99.90;;;;;;5093815;28;20695;-80
2023/06/16 05:21:05;;;;;;;19.50;14.87;;;17.00;99.90;;;;;;5093728;28;20226;-79
2023/06/16 05:23:32;;;;;;;18.00;13.30;;;17.10;99.90;;;;;;5092557;28;20267;-79
2023/06/16 05:25:59;;;;;;;20.30;14.80;;;17.10;99.90;;;;;;5091957;28;20218;-80
2023/06/16 05:28:26;;;;;;;18.03;14.47;;;17.00;99.90;;;;;;5092451;28;20671;-79
2023/06/16 05:30:53;;;;;;;19.17;14.47;;;17.10;99.90;;;;;;5093862;28;20232;-80
2023/06/16 05:33:20;;;;;;;18.50;14.57;;;17.20;99.90;;;;;;5075904;28;20198;-80
2023/06/16 05:35:47;;;;;;;21.13;14.10;;;17.20;99.90;;;;;;5075450;28;20241;-78
2023/06/16 05:38:14;;;;;;;18.43;12.77;;;17.40;99.90;;;;;;5092018;28;20196;-79
2023/06/16 05:40:41;;;;;;;17.47;12.10;;;17.60;99.90;;;;;;5092155;28;20755;-80
2023/06/16 05:43:08;;;;;;;17.13;12.60;;;17.70;99.90;;;;;;5091897;28;20213;-80
2023/06/16 05:45:35;;;;;;;15.70;12.33;;;17.90;99.90;;;;;;5091864;28;20241;-79
2023/06/16 05:48:02;;;;;;;16.67;12.17;;;18.00;99.90;;;;;;5074919;28;20196;-79
2023/06/16 05:50:29;;;;;;;17.00;11.27;;;18.10;99.90;;;;;;5091975;28;20213;-79
2023/06/16 05:52:56;;;;;;;16.73;11.87;;;18.20;99.90;;;;;;5093189;28;20231;-79
2023/06/16 05:55:23;;;;;;;17.27;12.53;;;18.30;99.90;;;;;;5075039;28;20309;-79
2023/06/16 05:57:50;;;;;;;14.50;10.70;;;18.40;99.90;;;;;;5091435;28;20595;-78
2023/06/16 06:00:17;;;;;;;16.23;10.73;;;18.60;99.90;;;;;;5092564;28;20296;-80
2023/06/16 06:02:48;;;;;;;14.17;10.97;;;18.70;99.90;;;;;;5091892;28;20705;-81
2023/06/16 06:05:15;;;;;;;14.60;11.30;;;18.70;99.90;;;;;;5091628;28;20241;-80
2023/06/16 06:07:42;;;;;;;12.23;9.63;;;18.80;99.90;;;;;;5093051;28;20190;-80
2023/06/16 06:10:10;;;;;;;12.53;9.80;;;18.90;99.90;;;;;;5074405;28;20754;-80
2023/06/16 06:12:37;;;;;;;12.40;9.47;;;19.00;99.90;;;;;;5074906;28;20194;-81
2023/06/16 06:15:05;;;;;;;11.33;8.80;;;19.10;99.90;;;;;;5091354;28;20284;-80
2023/06/16 06:17:32;;;;;;;13.67;8.80;;;19.30;99.90;;;;;;5074795;28;20221;-80
2023/06/16 06:19:59;;;;;;;13.47;9.20;;;19.40;99.90;;;;;;5092704;28;20212;-80
2023/06/16 06:22:31;;;;;;;11.97;8.60;;;19.50;99.90;;;;;;5092815;28;20574;-81
2023/06/16 06:24:59;;;;;;;12.07;8.73;;;19.60;99.90;;;;;;5074323;28;20252;-80
2023/06/16 06:31:14;;;;;;;12.33;8.73;;;19.80;99.90;;;;;;5090912;28;20193;-75
2023/06/16 06:33:41;;;;;;;12.70;9.40;;;20.00;99.90;;;;;;5090947;28;20189;-81
2023/06/16 06:36:09;;;;;;;10.43;8.50;;;20.00;99.90;;;;;;5090336;28;20209;-76
2023/06/16 06:38:36;;;;;;;9.87;8.00;;;19.80;99.90;;;;;;5091879;28;20193;-76
2023/06/16 06:41:03;;;;;;;10.60;7.40;;;19.80;99.90;;;;;;5073926;28;20251;-75
2023/06/16 06:43:30;;;;;;;12.10;7.57;;;19.70;99.90;;;;;;5090723;28;20316;-76
2023/06/16 06:45:57;;;;;;;9.40;7.10;;;19.80;99.90;;;;;;5090260;28;20232;-77
2023/06/16 06:48:25;;;;;;;9.03;7.00;;;19.90;99.90;;;;;;5090471;28;20201;-91
2023/06/16 06:50:51;;;;;;;10.80;7.07;;;20.10;99.90;;;;;;5073631;28;20243;-80
2023/06/16 06:53:18;;;;;;;10.40;7.60;;;20.20;99.90;;;;;;5091565;28;20661;-77
2023/06/16 06:55:46;;;;;;;11.60;7.80;;;20.30;99.90;;;;;;5091632;28;20761;-78
2023/06/16 06:58:14;;;;;;;9.87;7.60;;;20.30;99.90;;;;;;5091828;28;20198;-79
2023/06/16 07:00:41;;;;;;;10.63;8.70;;;20.40;99.90;;;;;;5073539;28;20210;-82
2023/06/16 07:03:08;;;;;;;10.77;7.93;;;20.30;99.90;;;;;;5091485;28;20217;-78
2023/06/16 07:05:35;;;;;;;12.53;7.43;;;20.40;99.90;;;;;;5091968;28;20213;-79
2023/06/16 07:08:02;;;;;;;12.47;8.10;;;20.40;99.90;;;;;;5073751;28;20555;-79
2023/06/16 07:10:32;;;;;;;10.77;7.60;;;20.50;99.90;;;;;;5073823;28;20263;-78
2023/06/16 07:12:59;;;;;;;12.43;7.33;;;20.70;99.90;;;;;;5090679;28;20236;-77
2023/06/16 07:15:26;;;;;;;8.97;7.20;;;20.90;99.90;;;;;;5092001;28;20209;-77
2023/06/16 07:17:53;;;;;;;9.13;7.27;;;21.10;99.90;;;;;;5073795;28;20251;-75
2023/06/16 07:20:20;;;;;;;11.03;8.50;;;21.10;99.90;;;;;;5090592;28;20218;-78
2023/06/16 07:22:47;;;;;;;11.60;9.03;;;21.10;99.90;;;;;;5073709;28;20294;-76
2023/06/16 07:25:15;;;;;;;11.93;9.10;;;21.10;99.90;;;;;;5090528;28;20271;-77
2023/06/16 07:27:43;;;;;;;14.17;8.57;;;21.20;99.90;;;;;;5091776;28;20190;-77
2023/06/16 07:30:10;;;;;;;12.50;8.30;;;21.10;99.90;;;;;;5090424;28;20213;-74
2023/06/16 07:32:39;;;;;;;10.67;7.87;;;21.20;99.90;;;;;;5090531;28;20271;-73
2023/06/16 07:35:08;;;;;;;10.80;8.83;;;21.40;99.90;;;;;;5090773;28;20688;-76
2023/06/16 07:37:35;;;;;;;9.17;7.80;;;21.30;99.90;;;;;;5073620;28;20181;-75
2023/06/16 07:40:06;;;;;;;12.17;8.17;;;21.40;99.90;;;;;;5090581;28;20214;-74
2023/06/16 07:42:33;;;;;;;9.57;7.53;;;21.50;99.90;;;;;;5090460;28;20229;-73
2023/06/16 07:45:00;;;;;;;13.43;9.03;;;21.60;99.90;;;;;;5091529;28;20209;-71
2023/06/16 07:47:27;;;;;;;10.37;8.00;;;21.60;99.90;;;;;;5074132;28;20198;-73
2023/06/16 07:49:54;;;;;;;11.07;7.90;;;21.60;99.90;;;;;;5076568;28;20271;-71
2023/06/16 07:52:21;;;;;;;11.33;7.20;;;21.70;99.90;;;;;;5094150;28;20193;-73
2023/06/16 07:54:48;;;;;;;8.17;6.80;;;21.80;99.90;;;;;;5094412;28;20646;-75
2023/06/16 07:57:15;;;;;;;7.70;6.47;;;21.90;99.90;;;;;;5093869;28;20282;-73
2023/06/16 07:59:41;;;;;;;10.67;6.80;;;22.00;99.90;;;;;;5093881;28;20320;-73
2023/06/16 08:02:08;;;;;;;7.57;6.33;;;22.10;99.90;;;;;;5077073;28;20194;-74
2023/06/16 08:04:36;;;;;;;8.33;6.60;;;22.20;99.90;;;;;;5094866;28;20286;-72
2023/06/16 08:07:03;;;;;;;8.97;6.23;;;22.30;99.90;;;;;;5095035;28;20671;-76
2023/06/16 08:09:30;;;;;;;10.90;6.90;;;22.40;99.90;;;;;;5093171;28;20320;-76
2023/06/16 08:11:57;;;;;;;12.50;7.65;;;22.40;99.90;;;;;;5093442;28;20720;-76
2023/06/16 08:14:24;;;;;;;13.93;8.67;;;22.10;99.90;;;;;;5077019;28;20240;-78
2023/06/16 08:16:51;;;;;;;12.27;8.47;;;22.00;99.90;;;;;;5093307;28;20285;-75
2023/06/16 08:19:18;;;;;;;13.33;8.07;;;22.20;99.90;;;;;;5094125;28;20296;-75
2023/06/16 08:21:45;;;;;;;12.60;8.20;;;22.00;99.90;;;;;;5093863;28;20560;-78
2023/06/16 08:24:12;;;;;;;10.47;6.83;;;22.00;99.90;;;;;;5096632;28;20243;-78
2023/06/16 08:26:39;;;;;;;9.67;6.70;;;22.30;99.90;;;;;;5093286;28;20313;-76
2023/06/16 08:29:10;;;;;;;12.02;7.50;;;22.40;99.90;;;;;;5076853;28;20189;-74
2023/06/16 08:31:37;;;;;;;13.70;8.52;;;23.00;99.90;;;;;;5094321;28;20252;-75
2023/06/16 08:34:04;;;;;;;10.00;7.67;;;23.30;99.90;;;;;;5093011;28;20292;-75
2023/06/16 08:36:33;;;;;;;9.10;7.22;;;23.70;99.90;;;;;;5093001;28;20607;-76
2023/06/16 08:39:00;;;;;;;9.02;6.82;;;24.10;99.90;;;;;;5076490;28;20223;-74
2023/06/16 08:41:27;;;;;;;8.15;7.20;;;24.10;99.90;;;;;;5075995;28;20217;-75
2023/06/16 08:43:58;;;;;;;8.57;6.28;;;23.90;99.90;;;;;;5092985;28;20252;-78
2023/06/16 08:46:26;;;;;;;9.45;7.45;;;24.20;99.90;;;;;;5093039;28;20241;-76
2023/06/16 08:48:53;;;;;;;9.77;7.70;;;24.60;99.90;;;;;;5093004;28;20645;-76
2023/06/16 08:51:23;;;;;;;10.27;7.88;;;25.00;99.90;;;;;;5094045;28;20266;-76
2023/06/16 08:54:00;;;;;;;9.52;7.20;;;25.40;99.90;;;;;;5092823;28;20653;-77
2023/06/16 08:56:31;;;;;;;8.25;6.97;;;25.20;99.90;;;;;;5092550;28;20258;-75
2023/06/16 08:59:01;;;;;;;9.68;6.90;;;24.80;99.90;;;;;;5094018;28;20200;-75
2023/06/16 09:01:30;;;;;;;8.25;6.95;;;24.70;99.90;;;;;;5092511;28;20228;-81
2023/06/16 09:03:57;;;;;;;8.93;6.43;;;24.80;99.90;;;;;;5075669;28;20232;-76
2023/06/16 09:06:25;;;;;;;9.07;6.80;;;25.00;99.90;;;;;;5093781;28;20203;-75
2023/06/16 09:08:54;;;;;;;10.23;7.32;;;25.10;99.90;;;;;;5075702;28;20224;-79
2023/06/16 09:11:25;;;;;;;9.98;7.22;;;25.00;99.90;;;;;;5092153;28;20308;-75
2023/06/16 09:13:52;;;;;;;8.48;7.38;;;25.20;99.90;;;;;;5093862;28;20186;-75
2023/06/16 09:16:23;;;;;;;8.43;6.72;;;25.40;99.90;;;;;;5075434;28;20217;-76
2023/06/16 09:18:50;;;;;;;8.10;6.93;;;25.60;99.90;;;;;;5092642;28;20194;-76
2023/06/16 09:21:22;;;;;;;9.07;6.90;;;26.10;99.90;;;;;;5092485;28;20243;-74
2023/06/16 09:23:57;;;;;;;8.57;6.45;;;26.40;99.90;;;;;;5075829;28;20232;-75
2023/06/16 09:26:29;;;;;;;9.30;7.32;;;26.70;99.90;;;;;;5093335;28;20213;-72
2023/06/16 09:28:57;;;;;;;8.63;6.88;;;26.80;99.90;;;;;;5093416;28;20182;-76
2023/06/16 09:31:27;;;;;;;9.55;6.95;;;26.80;99.90;;;;;;5075133;28;20245;-75
2023/06/16 09:34:04;;;;;;;7.68;6.25;;;26.90;99.90;;;;;;5091997;28;20766;-75
2023/06/16 09:36:32;;;;;;;6.90;6.15;;;27.10;99.90;;;;;;5092392;28;20258;-78
2023/06/16 09:38:58;;;;;;;8.60;6.50;;;27.20;99.90;;;;;;5092038;28;20221;-75
2023/06/16 09:41:25;;;;;;;10.23;6.75;;;27.30;99.90;;;;;;5091918;28;20220;-76
2023/06/16 09:43:52;;;;;;;7.50;6.70;;;27.40;99.90;;;;;;5091813;28;20221;-78
2023/06/16 09:46:20;;;;;;;7.20;6.43;;;27.20;99.90;;;;;;5092949;28;20197;-78
2023/06/16 09:48:49;;;;;;;6.57;5.88;;;26.90;99.90;;;;;;5092118;28;20225;-78
2023/06/16 09:51:17;;;;;;;9.40;6.70;;;26.80;99.90;;;;;;5092974;28;20198;-76
2023/06/16 09:53:46;;;;;;;7.32;6.20;;;26.40;99.90;;;;;;5091754;28;20225;-75
2023/06/16 09:56:17;;;;;;;6.97;6.22;;;26.30;99.90;;;;;;5091383;28;20657;-75
2023/06/16 09:58:45;;;;;;;8.57;6.68;;;26.40;99.90;;;;;;5091982;28;20185;-75
2023/06/16 10:01:15;;;;;;;9.02;6.72;;;26.20;99.90;;;;;;5074388;28;20225;-75
2023/06/16 10:03:47;;;;;;;8.27;6.05;;;26.00;99.90;;;;;;5091419;28;20221;-77
2023/06/16 10:06:20;;;;;;;6.95;6.25;;;26.40;99.90;;;;;;5091582;28;20217;-76
2023/06/16 10:08:48;;;;;;;6.45;5.85;;;26.80;99.90;;;;;;5091459;28;20235;-77
2023/06/16 10:11:16;;;;;;;8.02;5.70;;;27.10;99.90;;;;;;5073825;28;20237;-77
2023/06/16 10:13:54;;;;;;;7.22;5.65;;;27.50;97.60;;;;;;5091351;28;20293;-77
2023/06/16 10:16:28;;;;;;;5.82;5.32;;;28.00;98.20;;;;;;5091206;28;20218;-78
2023/06/16 10:18:59;;;;;;;7.05;5.80;;;28.40;97.00;;;;;;5091646;28;20244;-77
2023/06/16 10:21:27;;;;;;;5.82;5.22;;;28.80;96.70;;;;;;5093328;28;20573;-77
2023/06/16 10:23:54;;;;;;;6.95;5.68;;;29.30;97.30;;;;;;5091702;28;20299;-78
2023/06/16 10:26:22;;;;;;;7.25;5.30;;;29.60;95.10;;;;;;5092631;28;20214;-77
2023/06/16 10:28:50;;;;;;;7.97;5.00;;;30.00;93.80;;;;;;5092399;28;20188;-78
2023/06/16 10:31:18;;;;;;;5.25;4.50;;;30.10;90.20;;;;;;5074331;28;20209;-79
2023/06/16 10:33:59;;;;;;;5.20;4.70;;;30.10;86.20;;;;;;5092194;28;20189;-79
2023/06/16 10:36:33;;;;;;;6.63;4.60;;;30.20;87.30;;;;;;5092440;28;20550;-77
2023/06/16 10:39:07;;;;;;;4.57;4.18;;;30.30;86.00;;;;;;5090993;28;20224;-81
2023/06/16 10:41:54;;;;;;;5.45;4.50;;;30.30;85.70;;;;;;5073960;28;20429;-83
2023/06/16 10:44:25;;;;;;;7.30;4.20;;;30.40;80.90;;;;;;5090324;28;20221;-84
2023/06/16 10:47:04;;;;;;;4.72;4.18;;;30.70;78.70;;;;;;5091681;28;20293;-83
2023/06/16 10:49:32;;;;;;;4.43;3.58;;;30.80;77.40;;;;;;5077895;28;20201;-83
2023/06/16 10:52:02;;;;;;;4.28;3.88;;;30.90;76.30;;;;;;5092582;28;20220;-84
2023/06/16 10:54:48;;;;;;;4.93;3.55;;;31.40;74.90;;;;;;5092546;28;20197;-83
2023/06/16 10:57:15;;;;;;;3.72;3.35;;;31.70;71.70;;;;;;5074553;28;20225;-84
2023/06/16 10:59:55;;;;;;;5.50;3.72;;;32.20;70.30;;;;;;5091188;28;20221;-83
2023/06/16 11:02:24;;;;;;;4.63;3.70;;;32.20;68.70;;;;;;5091847;28;20735;-84
2023/06/16 11:05:07;;;;;;;6.10;3.80;;;32.30;68.30;;;;;;5090970;28;20256;-83
2023/06/16 11:08:05;;;;;;;4.35;3.75;;;32.50;67.20;;;;;;5091102;28;20255;-75
2023/06/16 11:10:49;;;;;;;3.85;3.53;;;32.80;66.30;;;;;;5090290;28;20257;-78
2023/06/16 11:13:27;;;;;;;6.72;3.60;;;33.10;65.20;;;;;;5092171;28;20205;-78
2023/06/16 11:15:55;;;;;;;3.75;3.35;;;33.40;63.80;;;;;;5091158;28;20227;-77
2023/06/16 11:18:26;;;;;;;4.00;3.60;;;34.00;62.90;;;;;;5090910;28;20235;-79
2023/06/16 11:20:57;;;;;;;6.00;4.20;;;33.70;61.70;;;;;;5092361;28;20254;-78
2023/06/16 11:23:25;;;;;;;5.07;3.60;;;33.40;61.40;;;;;;5093261;28;20233;-78
2023/06/16 11:25:52;;;;;;;6.30;3.97;;;33.60;60.40;;;;;;5077930;28;20240;-78
2023/06/16 11:28:20;;;;;;;4.97;3.65;;;33.50;61.10;;;;;;5078096;28;20189;-79
2023/06/16 11:30:48;;;;;;;5.60;3.95;;;33.30;59.50;;;;;;5077671;28;20685;-80
2023/06/16 11:33:16;;;;;;;5.32;3.60;;;33.50;59.70;;;;;;5094435;28;20202;-77
2023/06/16 11:35:43;;;;;;;4.63;4.00;;;33.30;59.70;;;;;;5094465;28;20213;-80
2023/06/16 11:38:10;;;;;;;5.13;3.70;;;33.10;59.80;;;;;;5096240;28;20196;-79
2023/06/16 11:40:37;;;;;;;6.30;3.78;;;32.90;60.90;;;;;;5094426;28;20380;-79
2023/06/16 11:43:06;;;;;;;6.78;3.80;;;33.30;61.90;;;;;;5094606;28;20225;-78
2023/06/16 11:45:37;;;;;;;4.55;4.00;;;33.50;61.70;;;;;;5095691;28;20255;-80
2023/06/16 11:48:07;;;;;;;5.13;3.90;;;33.90;59.90;;;;;;5077498;28;20209;-79
2023/06/16 11:50:35;;;;;;;6.10;4.05;;;34.20;59.70;;;;;;5095737;28;20217;-78
2023/06/16 11:53:03;;;;;;;6.30;4.68;;;34.30;59.30;;;;;;5093932;28;20196;-79
2023/06/16 11:55:30;;;;;;;5.43;4.15;;;33.80;58.30;;;;;;5093826;28;20237;-79
2023/06/16 11:57:57;;;;;;;5.03;4.30;;;33.30;60.10;;;;;;5095454;28;20198;-80
2023/06/16 12:00:27;;;;;;;4.90;4.40;;;32.70;60.20;;;;;;5093531;28;20313;-80
2023/06/16 12:02:55;;;;;;;5.18;4.68;;;31.90;62.50;;;;;;5094727;28;20258;-78
2023/06/16 12:05:27;;;;;;;5.63;4.70;;;31.70;64.20;;;;;;5076946;28;20321;-78
2023/06/16 12:07:54;;;;;;;5.80;4.38;;;31.70;62.70;;;;;;5093544;28;20194;-78
2023/06/16 12:10:25;;;;;;;5.13;4.28;;;32.20;62.10;;;;;;5093738;28;20237;-79
2023/06/16 12:12:52;;;;;;;5.13;4.63;;;32.70;61.30;;;;;;5093956;28;20244;-79
2023/06/16 12:15:21;;;;;;;5.13;4.40;;;33.20;62.20;;;;;;5093520;28;20349;-80
2023/06/16 12:17:48;;;;;;;7.40;4.45;;;33.30;58.90;;;;;;5094870;28;20672;-79
2023/06/16 12:20:17;;;;;;;4.72;4.22;;;33.70;59.60;;;;;;5094600;28;20236;-77
2023/06/16 12:22:46;;;;;;;5.03;4.53;;;33.90;59.30;;;;;;5076952;28;20189;-79
2023/06/16 12:25:16;;;;;;;5.07;4.47;;;34.00;58.50;;;;;;5076899;28;20741;-80
2023/06/16 12:27:49;;;;;;;4.72;4.10;;;34.10;58.00;;;;;;5076690;28;20193;-80
2023/06/16 12:30:17;;;;;;;4.38;3.80;;;33.70;56.40;;;;;;5093387;28;20213;-86
2023/06/16 12:32:46;;;;;;;4.85;4.28;;;33.30;57.50;;;;;;5093453;28;20193;-83
2023/06/16 12:35:25;;;;;;;5.75;4.50;;;32.70;58.40;;;;;;5091974;28;20681;-82
2023/06/16 12:37:57;;;;;;;5.25;4.75;;;32.00;59.10;;;;;;5093273;28;20182;-85
2023/06/16 12:40:28;;;;;;;6.28;4.60;;;31.80;60.40;;;;;;5076729;28;20673;-85
2023/06/16 12:42:55;;;;;;;6.15;5.13;;;31.70;60.10;;;;;;5094557;28;20196;-85
2023/06/16 12:45:22;;;;;;;7.60;5.40;;;31.60;59.70;;;;;;5076250;28;20221;-80
2023/06/16 12:47:49;;;;;;;6.00;5.50;;;31.60;60.60;;;;;;5092967;28;20605;-81